Weather reports worldwide

Advertisment
East malling, United Kingdom (99008): temperature & dewpoint: 10.01.2021 05:00:00 - 16.01.2021 05:00:00 (GMT)East malling, United Kingdom (99008): temperature -20cm: 10.01.2021 05:00:00 - 16.01.2021 05:00:00 (GMT)East malling, United Kingdom (99008): wind speed: 10.01.2021 05:00:00 - 16.01.2021 05:00:00 (GMT)East malling, United Kingdom (99008): wind direction: 10.01.2021 05:00:00 - 16.01.2021 05:00:00 (GMT)East malling, United Kingdom (99008): reduced air pressure: 10.01.2021 05:00:00 - 16.01.2021 05:00:00 (GMT)East malling, United Kingdom (99008): sunshine duration: 10.01.2021 05:00:00 - 16.01.2021 05:00:00 (GMT)East malling, United Kingdom (99008): precipitation: 10.01.2021 05:00:00 - 16.01.2021 05:00:00 (GMT)
Date & Time tt [°C] td [°C] tt -20cm [°C] ff [km/h] ff [kn] dd ppp [hPa] sd [min] rr [mm]
16.01.2021 05:00:00 - - - - - - - - -
16.01.2021 04:00:00 1,8 -1,5 - 13 7 SSW 1026,8 0 0,0
16.01.2021 03:00:00 1,6 -1,1 - 13 7 S 1027,5 0 0,0
16.01.2021 02:00:00 1,1 -0,5 - 13 7 S 1028,6 0 0,0
16.01.2021 01:00:00 -0,4 -0,6 - 8 4 S 1029,2 0 0,0
16.01.2021 00:00:00 -1,9 -2,1 - 4 2 S 1029,8 - 0,0
15.01.2021 23:00:00 -1,5 -1,8 - 2 1 SSW 1030,4 0 0,0
15.01.2021 22:00:00 -1,7 -2,2 - 2 1 SW 1031,0 0 0,0
15.01.2021 21:00:00 -0,6 -1,1 - 2 1 ENE 1031,3 0 0,0
15.01.2021 20:00:00 0,3 -0,4 - 8 4 S 1031,1 0 0,0
15.01.2021 19:00:00 1,2 0,4 - 0 0 N 1031,4 0 0,0
15.01.2021 18:00:00 2,1 1,0 - 0 0 N 1031,1 0 0,0
15.01.2021 17:00:00 2,6 0,9 - 0 0 N 1031,1 0 0,0
15.01.2021 16:00:00 3,3 0,9 - 4 2 WNW 1031,3 0 0,0
15.01.2021 15:00:00 3,6 0,5 - 0 0 N 1031,1 0 0,0
15.01.2021 14:00:00 3,5 0,8 - 5 3 N 1031,0 0 0,0
15.01.2021 13:00:00 3,5 1,1 - 5 3 NE 1031,2 0 0,0
15.01.2021 12:00:00 3,3 1,0 - 5 3 NNW 1031,5 0 0,0
15.01.2021 11:00:00 3,1 1,0 - 9 5 NNE 1031,4 0 0,0
15.01.2021 10:00:00 2,8 0,4 - 8 4 NNE 1030,9 0 0,0
15.01.2021 09:00:00 2,3 0,7 4,7 4 2 N 1030,2 0 0,0
15.01.2021 08:00:00 2,1 0,7 - 5 3 NNW 1029,5 0 0,0
15.01.2021 07:00:00 2,1 0,6 - 9 5 N 1028,6 0 0,0
15.01.2021 06:00:00 2,0 0,5 - 8 4 N 1027,7 0 0,0
15.01.2021 05:00:00 1,6 0,2 - 9 5 N 1027,3 0 0,0
15.01.2021 04:00:00 1,1 -0,2 - 8 4 N 1026,5 0 0,0
15.01.2021 03:00:00 1,2 -0,3 - 11 6 N 1026,0 0 0,0
15.01.2021 02:00:00 1,5 -0,1 - 11 6 N 1025,3 0 0,0
15.01.2021 01:00:00 1,5 0,4 - 9 5 N 1024,7 0 0,0
15.01.2021 00:00:00 1,5 0,5 - 9 5 N 1024,1 - 0,0
14.01.2021 23:00:00 2,4 1,3 - 15 8 N 1023,4 0 0,0
14.01.2021 22:00:00 2,4 1,7 - 16 9 NNE 1022,7 0 0,2
14.01.2021 21:00:00 2,6 2,0 - 16 9 NNE 1022,0 0 0,2
14.01.2021 20:00:00 2,7 1,8 - 15 8 NE 1020,9 0 0,0
14.01.2021 19:00:00 2,9 1,6 - 15 8 ENE 1019,8 0 0,4
14.01.2021 18:00:00 3,1 2,4 - 16 9 NE 1018,4 0 0,2
14.01.2021 17:00:00 3,0 2,4 - 21 11 NE 1016,9 0 0,2
14.01.2021 16:00:00 3,7 3,3 - 13 7 NE 1015,3 0 0,2
14.01.2021 15:00:00 3,9 3,6 - 5 3 NE 1014,0 0 0,2
14.01.2021 14:00:00 4,2 3,9 - 8 4 ENE 1013,2 0 0,4
14.01.2021 13:00:00 4,5 4,2 - 11 6 NE 1012,8 0 0,4
14.01.2021 12:00:00 5,1 4,6 - 8 4 E 1013,0 0 0,6
14.01.2021 11:00:00 5,2 4,9 - 5 3 E 1013,4 0 1,4
14.01.2021 10:00:00 5,4 5,1 - 8 4 E 1013,6 0 2,6
14.01.2021 09:00:00 5,3 5,1 5,2 9 5 E 1013,7 0 2,4
14.01.2021 08:00:00 5,3 5,2 - 5 3 ESE 1014,0 0 2,4
14.01.2021 07:00:00 5,5 5,4 - 4 2 SSE 1014,4 0 2,0
14.01.2021 06:00:00 4,7 4,6 - 0 0 N 1015,0 0 2,2
14.01.2021 05:00:00 4,6 4,5 - 4 2 W 1015,5 0 1,4
14.01.2021 04:00:00 4,9 4,8 - 0 0 N 1016,1 0 0,8
14.01.2021 03:00:00 4,9 4,8 - 2 1 ENE 1016,7 0 1,2
14.01.2021 02:00:00 5,0 4,9 - 4 2 NE 1017,0 0 2,2
14.01.2021 01:00:00 5,1 4,9 - 4 2 N 1017,2 0 0,8
14.01.2021 00:00:00 5,4 5,2 - 4 2 NE 1017,5 - 0,2
13.01.2021 23:00:00 5,9 5,7 - 0 0 N 1017,7 0 0,2
13.01.2021 22:00:00 6,0 5,8 - 4 2 NNE 1017,9 0 0,2
13.01.2021 21:00:00 6,9 6,5 - 0 0 N 1017,5 0 0,2
13.01.2021 20:00:00 7,7 7,2 - 4 2 N 1017,4 0 0,0
13.01.2021 19:00:00 9,7 9,0 - 13 7 WNW 1017,2 0 0,0
13.01.2021 18:00:00 9,6 9,2 - 13 7 W 1016,9 0 0,0
13.01.2021 17:00:00 9,3 9,2 - 9 5 W 1016,8 0 0,2
13.01.2021 16:00:00 7,3 7,2 - 2 1 E 1016,8 0 0,6
13.01.2021 15:00:00 7,2 7,1 - 2 1 NW 1016,8 0 0,4
13.01.2021 14:00:00 6,3 6,2 - 4 2 SSW 1016,7 0 0,2
13.01.2021 13:00:00 5,4 5,3 - 5 3 SSW 1017,2 0 0,0
13.01.2021 12:00:00 5,0 4,9 - 2 1 ENE 1018,0 0 0,0
13.01.2021 11:00:00 4,0 3,9 - 2 1 SE 1018,5 0 0,0
13.01.2021 10:00:00 2,8 2,6 - 8 4 S 1018,5 0 0,0
13.01.2021 09:00:00 2,0 1,7 4,2 4 2 SSW 1019,1 0 0,0
13.01.2021 08:00:00 1,6 1,2 - 8 4 SSE 1019,1 0 0,0
13.01.2021 07:00:00 1,5 0,9 - 4 2 S 1019,3 0 0,0
13.01.2021 06:00:00 1,5 0,8 - 5 3 SSW 1019,5 0 0,0
13.01.2021 05:00:00 0,4 0,3 - 8 4 S 1019,9 0 0,0
13.01.2021 04:00:00 -1,1 -1,4 - 0 0 N 1020,7 0 0,0
13.01.2021 03:00:00 -1,1 -1,5 - 0 0 N 1020,8 0 0,0
13.01.2021 02:00:00 -1,4 -2,2 - 2 1 ESE 1020,7 0 0,0
13.01.2021 01:00:00 -0,2 -1,3 - 0 0 N 1020,7 0 0,0
13.01.2021 00:00:00 1,1 -0,5 - 8 4 WSW 1021,0 - 0,0
12.01.2021 23:00:00 1,5 -0,5 - 4 2 S 1020,7 0 0,0
12.01.2021 22:00:00 2,1 -0,5 - 8 4 NW 1020,4 0 0,0
12.01.2021 21:00:00 0,7 -1,4 - 5 3 WNW 1020,2 0 0,0
12.01.2021 20:00:00 1,3 -0,2 - 4 2 WSW 1019,8 0 0,0
12.01.2021 19:00:00 2,7 0,6 - 8 4 NNW 1019,0 0 0,0
12.01.2021 18:00:00 3,5 1,3 - 9 5 N 1018,2 0 0,0
12.01.2021 17:00:00 4,5 1,7 - 15 8 N 1017,2 0 0,0
12.01.2021 16:00:00 5,2 3,0 - 13 7 N 1016,4 0 0,0
12.01.2021 15:00:00 6,3 4,0 - 11 6 N 1015,6 0 0,0
12.01.2021 14:00:00 6,7 4,6 - 11 6 NNW 1014,6 6 0,0
12.01.2021 13:00:00 6,5 5,6 - 9 5 N 1014,1 0 0,0
12.01.2021 12:00:00 6,9 5,4 - 11 6 NNE 1013,7 0 0,0
12.01.2021 11:00:00 7,8 5,9 - 11 6 N 1013,0 0 0,0
12.01.2021 10:00:00 8,3 6,6 - 11 6 NNW 1012,1 0 0,2
12.01.2021 09:00:00 8,2 6,7 4,9 13 7 NNW 1010,9 0 0,0
12.01.2021 08:00:00 8,6 7,5 - 13 7 NNW 1009,9 0 1,2
12.01.2021 07:00:00 9,1 8,0 - 15 8 W 1008,6 0 0,2
12.01.2021 06:00:00 9,0 7,8 - 18 10 W 1008,4 0 0,6
12.01.2021 05:00:00 8,9 7,7 - 18 10 W 1008,6 0 1,0
12.01.2021 04:00:00 8,9 7,5 - 24 13 W 1009,1 0 0,8
12.01.2021 03:00:00 8,6 7,2 - 16 9 WSW 1009,8 0 0,2
12.01.2021 02:00:00 8,1 7,0 - 18 10 WSW 1010,2 0 0,2
12.01.2021 01:00:00 7,9 6,6 - 22 12 WSW 1011,1 0 0,2
12.01.2021 00:00:00 7,6 6,2 - 18 10 WSW 1011,9 - 1,0
11.01.2021 23:00:00 7,5 5,8 - 18 10 WSW 1012,9 0 0,6
11.01.2021 22:00:00 7,5 5,5 - 16 9 WSW 1013,0 0 0,2
11.01.2021 21:00:00 7,9 5,1 - 18 10 WSW 1013,6 0 0,0
11.01.2021 20:00:00 7,8 4,9 - 16 9 WSW 1014,3 0 0,0
11.01.2021 19:00:00 7,9 4,6 - 22 12 WSW 1014,7 0 0,0
11.01.2021 18:00:00 8,3 4,6 - 22 12 W 1014,9 0 0,0
11.01.2021 17:00:00 8,3 4,3 - 24 13 W 1015,3 0 0,0
11.01.2021 16:00:00 8,4 4,3 - 22 12 W 1015,8 0 0,0
11.01.2021 15:00:00 8,4 4,4 - 18 10 W 1016,0 0 0,0
11.01.2021 14:00:00 8,0 4,4 - 22 12 W 1016,4 6 0,0
11.01.2021 13:00:00 7,9 4,0 - 16 9 WSW 1017,4 0 0,0
11.01.2021 12:00:00 7,0 4,0 - 11 6 WSW 1018,5 0 0,0
11.01.2021 11:00:00 6,7 4,1 - 13 7 WSW 1019,4 0 0,0
11.01.2021 10:00:00 5,9 3,9 - 15 8 WSW 1019,9 0 0,0
11.01.2021 09:00:00 5,0 3,7 3,2 13 7 SW 1019,8 0 0,0
11.01.2021 08:00:00 4,4 3,2 - 9 5 SW 1020,0 0 0,0
11.01.2021 07:00:00 4,3 3,1 - 9 5 SW 1020,1 0 0,0
11.01.2021 06:00:00 3,4 2,6 - 9 5 SW 1020,5 0 0,0
11.01.2021 05:00:00 3,4 2,5 - 13 7 SW 1020,9 0 0,0
11.01.2021 04:00:00 3,2 2,4 - 13 7 SW 1021,7 0 0,0
11.01.2021 03:00:00 2,5 1,7 - 13 7 SW 1022,3 0 0,0
11.01.2021 02:00:00 2,2 1,5 - 11 6 SW 1022,4 0 0,0
11.01.2021 01:00:00 1,8 1,3 - 9 5 SSW 1023,0 0 0,0
11.01.2021 00:00:00 1,5 0,9 - 11 6 SW 1023,2 - 0,0
10.01.2021 23:00:00 2,1 1,2 - 11 6 SSW 1024,1 0 0,0
10.01.2021 22:00:00 2,0 1,2 - 9 5 WSW 1024,5 0 0,0
10.01.2021 21:00:00 1,9 1,2 - 11 6 SW 1024,5 0 0,0
10.01.2021 20:00:00 2,4 1,7 - 9 5 WSW 1024,6 0 0,0
10.01.2021 19:00:00 1,1 0,7 - 0 0 N 1025,1 0 0,0
10.01.2021 18:00:00 1,0 0,6 - 4 2 SE 1025,1 0 0,0
10.01.2021 17:00:00 0,7 0,3 - 2 1 S 1025,3 0 0,0
10.01.2021 16:00:00 0,6 0,3 - 8 4 SSW 1025,2 0 0,0
10.01.2021 15:00:00 0,4 0,0 - 8 4 SSW 1025,5 0 0,0
10.01.2021 14:00:00 0,4 0,2 - 5 3 SSW 1025,4 0 0,0
10.01.2021 13:00:00 -0,1 -0,3 - 5 3 SSW 1025,7 0 0,0
10.01.2021 12:00:00 -0,5 -0,7 - 5 3 SSW 1026,3 0 0,0
10.01.2021 11:00:00 -1,0 -1,3 - 5 3 SW 1026,7 0 0,0
10.01.2021 10:00:00 -1,4 -1,6 - 5 3 W 1026,9 0 0,0
10.01.2021 09:00:00 -1,8 -2,1 2,9 5 3 W 1026,7 0 0,0
10.01.2021 08:00:00 -2,5 -2,8 - 5 3 SW 1026,5 0 0,0
10.01.2021 07:00:00 -2,6 -2,9 - 5 3 WSW 1026,5 0 0,0
10.01.2021 06:00:00 -3,7 -4,1 - 4 2 SW 1026,5 0 0,0
10.01.2021 05:00:00 -4,5 -5,0 - 5 3 SSW 1026,6 0 0,0

tt = temperature
td = dewpoint
tt -20cm = temperature -20cm
ff = wind speed
dd = wind direction
ppp = reduced air pressure
sd = sunshine duration
rr = precipitation

Next stations